createdAt,value
2017-07-18T00:00:04.523Z,0
2017-07-18T00:00:58.523Z,0
2017-07-18T00:01:59.155Z,0
2017-07-18T00:02:58.704Z,0
2017-07-18T00:03:53.733Z,0
2017-07-18T00:04:53.663Z,0
2017-07-18T00:05:53.777Z,0
2017-07-18T00:06:53.845Z,0
2017-07-18T00:07:59.769Z,0
2017-07-18T00:08:59.833Z,0
2017-07-18T00:09:53.931Z,0
2017-07-18T00:10:53.945Z,0
2017-07-18T00:11:48.959Z,0
2017-07-18T00:12:44.117Z,0
2017-07-18T00:13:44.057Z,0
2017-07-18T00:14:39.153Z,0
2017-07-18T00:15:34.070Z,0
2017-07-18T00:16:34.273Z,0
2017-07-18T00:17:29.107Z,0
2017-07-18T00:18:24.239Z,0
2017-07-18T00:19:25.198Z,0
2017-07-18T00:20:26.378Z,0
2017-07-18T00:21:21.295Z,0
2017-07-18T00:22:15.319Z,0
2017-07-18T00:23:15.311Z,0
2017-07-18T00:24:15.455Z,0
2017-07-18T00:25:10.492Z,0
2017-07-18T00:26:04.501Z,0
2017-07-18T00:27:04.562Z,0
2017-07-18T00:27:59.551Z,0
2017-07-18T00:28:54.640Z,0
2017-07-18T00:30:00.581Z,0
2017-07-18T00:30:54.699Z,0
2017-07-18T00:31:55.690Z,0
2017-07-18T00:32:55.743Z,0
2017-07-18T00:33:55.991Z,0
2017-07-18T00:34:50.724Z,0
2017-07-18T00:35:50.797Z,0
2017-07-18T00:36:50.975Z,0
2017-07-18T00:37:44.898Z,0
2017-07-18T00:38:44.984Z,0
2017-07-18T00:39:39.954Z,0
2017-07-18T00:40:40.060Z,0
2017-07-18T00:41:34.050Z,0
2017-07-18T00:42:34.171Z,0
2017-07-18T00:43:29.164Z,0
2017-07-18T00:44:24.216Z,0
2017-07-18T00:45:24.148Z,0
2017-07-18T00:46:19.159Z,0
2017-07-18T00:47:14.356Z,0
2017-07-18T00:48:15.270Z,0
2017-07-18T00:49:16.343Z,0
2017-07-18T00:50:11.476Z,0
2017-07-18T00:51:05.421Z,0
2017-07-18T00:52:05.415Z,0
2017-07-18T00:53:05.511Z,0
2017-07-18T00:54:00.474Z,0
2017-07-18T00:55:00.466Z,0
2017-07-18T00:56:06.619Z,0
2017-07-18T00:57:01.600Z,0
2017-07-18T00:58:01.756Z,0
2017-07-18T00:58:56.678Z,0
2017-07-18T00:59:51.758Z,0
2017-07-18T01:00:51.807Z,0
2017-07-18T01:01:46.811Z,0
2017-07-18T01:02:41.834Z,0
2017-07-18T01:03:47.827Z,0
2017-07-18T01:04:41.953Z,0
2017-07-18T01:05:41.850Z,0
2017-07-18T01:06:37.044Z,0
2017-07-18T01:07:36.907Z,0
2017-07-18T01:08:30.988Z,0
2017-07-18T01:09:31.071Z,0
2017-07-18T01:10:26.041Z,0
2017-07-18T01:11:26.032Z,0
2017-07-18T01:12:26.276Z,0
2017-07-18T01:13:26.316Z,0
2017-07-18T01:14:26.356Z,0
2017-07-18T01:15:33.351Z,0
2017-07-18T01:16:33.292Z,0
2017-07-18T01:17:33.230Z,0
2017-07-18T01:18:27.776Z,0
2017-07-18T01:19:27.248Z,0
2017-07-18T01:20:22.385Z,0
2017-07-18T01:21:17.420Z,0
2017-07-18T01:22:18.520Z,0
2017-07-18T01:23:18.547Z,0
2017-07-18T01:24:18.611Z,0
2017-07-18T01:25:13.575Z,0
2017-07-18T01:26:13.620Z,0
2017-07-18T01:27:13.551Z,0
2017-07-18T01:28:13.725Z,0
2017-07-18T01:29:14.264Z,0
2017-07-18T01:30:07.816Z,0
2017-07-18T01:31:08.802Z,0
2017-07-18T01:32:03.917Z,0
2017-07-18T01:32:57.861Z,0
2017-07-18T01:33:45.992Z,0
2017-07-18T01:34:33.975Z,0
2017-07-18T01:35:23.009Z,0
2017-07-18T01:36:11.024Z,0
2017-07-18T01:36:59.013Z,0
2017-07-18T01:37:59.015Z,0
2017-07-18T01:38:54.171Z,0
2017-07-18T01:39:54.154Z,0
2017-07-18T01:40:49.273Z,0
2017-07-18T01:41:44.196Z,0
2017-07-18T01:42:44.311Z,0
2017-07-18T01:43:39.194Z,0
2017-07-18T01:44:34.289Z,0
2017-07-18T01:45:35.357Z,0
2017-07-18T01:46:35.558Z,0
2017-07-18T01:47:35.494Z,0
2017-07-18T01:48:35.501Z,0
2017-07-18T01:49:35.383Z,0
2017-07-18T01:50:30.575Z,0
2017-07-18T01:51:24.629Z,0
2017-07-18T01:52:24.648Z,0
2017-07-18T01:53:19.661Z,0
2017-07-18T01:54:15.205Z,0
2017-07-18T01:55:14.789Z,0
2017-07-18T01:56:09.809Z,0
2017-07-18T01:57:04.721Z,0
2017-07-18T01:58:05.792Z,0
2017-07-18T01:59:05.954Z,0
2017-07-18T02:00:00.867Z,0
2017-07-18T02:01:00.913Z,0
2017-07-18T02:01:55.588Z,0
2017-07-18T02:02:54.964Z,0
2017-07-18T02:03:50.094Z,0
2017-07-18T02:04:50.133Z,0
2017-07-18T02:05:50.080Z,0
2017-07-18T02:06:50.049Z,0
2017-07-18T02:07:44.113Z,0
2017-07-18T02:08:44.194Z,0
2017-07-18T02:09:39.290Z,0
2017-07-18T02:10:34.384Z,0
2017-07-18T02:11:34.167Z,0
2017-07-18T02:12:29.399Z,0
2017-07-18T02:13:24.371Z,0
2017-07-18T02:14:24.370Z,0
2017-07-18T02:15:19.455Z,0
2017-07-18T02:16:14.455Z,0
2017-07-18T02:17:15.561Z,0
2017-07-18T02:18:15.588Z,0
2017-07-18T02:19:16.030Z,0
2017-07-18T02:20:15.688Z,0
2017-07-18T02:21:16.784Z,0
2017-07-18T02:22:17.683Z,0
2017-07-18T02:23:17.674Z,0
2017-07-18T02:24:23.679Z,0
2017-07-18T02:25:18.792Z,0
2017-07-18T02:26:18.951Z,0
2017-07-18T02:27:07.866Z,0
2017-07-18T02:28:01.985Z,0
2017-07-18T02:28:56.518Z,0
2017-07-18T02:29:43.996Z,0
2017-07-18T02:30:38.949Z,0
2017-07-18T02:31:28.099Z,0
2017-07-18T02:32:17.176Z,0
2017-07-18T02:33:05.185Z,0
2017-07-18T02:33:59.063Z,0
2017-07-18T02:34:47.226Z,0
2017-07-18T02:35:41.270Z,0
2017-07-18T02:36:36.392Z,0
2017-07-18T02:37:25.332Z,0
2017-07-18T02:38:14.383Z,0
2017-07-18T02:39:02.409Z,0
2017-07-18T02:39:50.444Z,0
2017-07-18T02:40:39.585Z,0
2017-07-18T02:41:27.510Z,0
2017-07-18T02:42:15.656Z,0
2017-07-18T02:43:04.536Z,4
2017-07-18T02:43:52.746Z,4
2017-07-18T02:44:40.699Z,4
2017-07-18T02:45:29.801Z,4
2017-07-18T02:46:17.866Z,0
2017-07-18T02:47:05.847Z,0
2017-07-18T02:47:54.806Z,4
2017-07-18T02:48:42.882Z,4
2017-07-18T02:49:30.902Z,4
2017-07-18T02:50:20.054Z,4
2017-07-18T02:51:14.039Z,4
2017-07-18T02:52:14.096Z,4
2017-07-18T02:53:08.033Z,8
2017-07-18T02:54:09.083Z,4
2017-07-18T02:55:09.118Z,8
2017-07-18T02:56:04.122Z,8
2017-07-18T02:57:04.185Z,8
2017-07-18T02:57:58.260Z,12
2017-07-18T02:58:58.284Z,12
2017-07-18T02:59:53.234Z,16
2017-07-18T03:00:48.401Z,16
2017-07-18T03:01:49.334Z,16
2017-07-18T03:02:49.364Z,20
2017-07-18T03:03:44.464Z,24
2017-07-18T03:04:44.503Z,24
2017-07-18T03:05:44.465Z,28
2017-07-18T03:06:45.605Z,32
2017-07-18T03:07:40.543Z,36
2017-07-18T03:08:28.652Z,40
2017-07-18T03:09:16.692Z,44
2017-07-18T03:10:04.668Z,48
2017-07-18T03:10:53.714Z,52
2017-07-18T03:11:41.795Z,56
2017-07-18T03:12:30.893Z,64
2017-07-18T03:13:19.764Z,68
2017-07-18T03:14:08.922Z,76
2017-07-18T03:14:57.968Z,84
2017-07-18T03:15:45.957Z,92
2017-07-18T03:16:34.100Z,100
2017-07-18T03:17:22.148Z,104
2017-07-18T03:18:16.145Z,120
2017-07-18T03:19:11.245Z,128
2017-07-18T03:19:59.149Z,136
2017-07-18T03:20:47.341Z,152
2017-07-18T03:21:36.167Z,160
2017-07-18T03:22:30.379Z,172
2017-07-18T03:23:19.341Z,184
2017-07-18T03:24:14.433Z,196
2017-07-18T03:25:03.452Z,216
2017-07-18T03:25:51.469Z,228
2017-07-18T03:26:45.600Z,244
2017-07-18T03:27:45.504Z,268
2017-07-18T03:28:39.653Z,288
2017-07-18T03:29:40.656Z,308
2017-07-18T03:30:35.631Z,332
2017-07-18T03:31:30.651Z,356
2017-07-18T03:32:24.791Z,380
2017-07-18T03:33:18.772Z,404
2017-07-18T03:34:13.822Z,428
2017-07-18T03:35:02.002Z,452
2017-07-18T03:35:49.821Z,480
2017-07-18T03:36:38.008Z,504
2017-07-18T03:37:26.898Z,532
2017-07-18T03:38:16.156Z,560
2017-07-18T03:39:11.033Z,596
2017-07-18T03:40:11.144Z,640
2017-07-18T03:41:06.213Z,680
2017-07-18T03:42:06.318Z,720
2017-07-18T03:43:07.151Z,760
2017-07-18T03:44:07.225Z,800
2017-07-18T03:45:13.151Z,844
2017-07-18T03:46:08.354Z,884
2017-07-18T03:47:02.406Z,916
2017-07-18T03:48:02.387Z,956
2017-07-18T03:49:02.369Z,1000
2017-07-18T03:50:03.529Z,1032
2017-07-18T03:51:09.477Z,1084
2017-07-18T03:52:03.488Z,1128
2017-07-18T03:53:04.586Z,1176
2017-07-18T03:53:59.537Z,1224
2017-07-18T03:54:59.659Z,1276
2017-07-18T03:55:59.562Z,1332
2017-07-18T03:56:59.620Z,1384
2017-07-18T03:57:59.724Z,1440
2017-07-18T03:58:59.751Z,1500
2017-07-18T03:59:59.864Z,1568
2017-07-18T04:00:59.758Z,1656
2017-07-18T04:01:59.850Z,1740
2017-07-18T04:02:53.884Z,1808
2017-07-18T04:03:53.872Z,1896
2017-07-18T04:04:49.021Z,2008
2017-07-18T04:05:43.959Z,2128
2017-07-18T04:06:38.062Z,2244
2017-07-18T04:07:38.038Z,2344
2017-07-18T04:08:33.668Z,2448
2017-07-18T04:09:28.108Z,2548
2017-07-18T04:10:17.287Z,2648
2017-07-18T04:11:12.260Z,2760
2017-07-18T04:12:12.280Z,2872
2017-07-18T04:13:07.260Z,2948
2017-07-18T04:14:07.319Z,3028
2017-07-18T04:15:07.391Z,3060
2017-07-18T04:16:07.397Z,3072
2017-07-18T04:17:01.443Z,3064
2017-07-18T04:18:01.509Z,3096
2017-07-18T04:18:49.542Z,3164
2017-07-18T04:19:37.533Z,3248
2017-07-18T04:20:25.613Z,3332
2017-07-18T04:21:19.608Z,3432
2017-07-18T04:22:13.654Z,3560
2017-07-18T04:23:13.634Z,3652
2017-07-18T04:24:07.723Z,3732
2017-07-18T04:25:08.729Z,3788
2017-07-18T04:25:57.915Z,3812
2017-07-18T04:26:45.858Z,3844
2017-07-18T04:27:45.862Z,3876
2017-07-18T04:28:40.578Z,3916
2017-07-18T04:29:28.938Z,3980
2017-07-18T04:30:23.023Z,4020
2017-07-18T04:31:10.984Z,4068
2017-07-18T04:31:59.101Z,4148
2017-07-18T04:32:48.143Z,4252
2017-07-18T04:33:48.168Z,4376
2017-07-18T04:34:42.154Z,4524
2017-07-18T04:35:31.272Z,4664
2017-07-18T04:36:19.284Z,4776
2017-07-18T04:37:08.388Z,4880
2017-07-18T04:38:03.275Z,5004
2017-07-18T04:39:03.407Z,5216
2017-07-18T04:39:52.446Z,5436
2017-07-18T04:40:40.509Z,5800
2017-07-18T04:41:34.499Z,6688
2017-07-18T04:42:23.634Z,7356
2017-07-18T04:43:23.692Z,7912
2017-07-18T04:44:17.645Z,8704
2017-07-18T04:45:18.702Z,9628
2017-07-18T04:46:12.735Z,9828
2017-07-18T04:47:06.818Z,9988
2017-07-18T04:48:06.728Z,10140
2017-07-18T04:49:06.935Z,10524
2017-07-18T04:50:06.828Z,10772
2017-07-18T04:51:01.911Z,10892
2017-07-18T04:51:50.875Z,11140
2017-07-18T04:52:45.066Z,11552
2017-07-18T04:53:33.595Z,11712
2017-07-18T04:54:22.026Z,11756
2017-07-18T04:55:10.183Z,11788
2017-07-18T04:56:10.125Z,11716
2017-07-18T04:57:10.143Z,12016
2017-07-18T04:58:10.291Z,12080
2017-07-18T04:58:58.324Z,11488
2017-07-18T04:59:46.553Z,8204
2017-07-18T05:00:35.412Z,8744
2017-07-18T05:01:29.375Z,11652
2017-07-18T05:02:24.515Z,13432
2017-07-18T05:03:19.511Z,13408
2017-07-18T05:04:14.394Z,13676
2017-07-18T05:05:07.575Z,13888
2017-07-18T05:06:01.649Z,14332
2017-07-18T05:06:56.652Z,14752
2017-07-18T05:07:56.711Z,14496
2017-07-18T05:08:51.752Z,14112
2017-07-18T05:09:45.695Z,14048
2017-07-18T05:10:39.843Z,14784
2017-07-18T05:11:34.844Z,15616
2017-07-18T05:12:29.978Z,16832
2017-07-18T05:13:23.977Z,16928
2017-07-18T05:14:23.988Z,16928
2017-07-18T05:15:12.136Z,17760
2017-07-18T05:16:07.087Z,17824
2017-07-18T05:17:02.649Z,18176
2017-07-18T05:17:56.495Z,17280
2017-07-18T05:18:44.493Z,18784
2017-07-18T05:19:45.591Z,15072
2017-07-18T05:20:34.651Z,15712
2017-07-18T05:21:28.392Z,19136
2017-07-18T05:22:28.816Z,22592
2017-07-18T05:23:22.459Z,24224
2017-07-18T05:24:10.687Z,25344
2017-07-18T05:25:04.736Z,25504
2017-07-18T05:25:58.686Z,31072
2017-07-18T05:26:53.656Z,30560
2017-07-18T05:27:47.665Z,29216
2017-07-18T05:28:37.398Z,28032
2017-07-18T05:29:31.765Z,26208
2017-07-18T05:30:19.972Z,28896
2017-07-18T05:31:13.861Z,29568
2017-07-18T05:32:13.943Z,29792
2017-07-18T05:33:08.965Z,27360
2017-07-18T05:34:09.135Z,31872
2017-07-18T05:35:02.980Z,32800
2017-07-18T05:35:57.159Z,32992
2017-07-18T05:36:46.550Z,32704
2017-07-18T05:37:40.344Z,32384
2017-07-18T05:38:34.869Z,33408
2017-07-18T05:39:29.339Z,34272
2017-07-18T05:40:24.285Z,36416
2017-07-18T05:41:24.713Z,37600
2017-07-18T05:42:19.466Z,37408
2017-07-18T05:43:14.524Z,36064
2017-07-18T05:44:04.030Z,34336
2017-07-18T05:44:57.999Z,33856
2017-07-18T05:45:52.140Z,35456
2017-07-18T05:46:40.306Z,37856
2017-07-18T05:47:39.996Z,40640
2017-07-18T05:48:29.329Z,42432
2017-07-18T05:49:22.977Z,41568
2017-07-18T05:50:23.822Z,40864
2017-07-18T05:51:18.969Z,41632
2017-07-18T05:52:08.071Z,37536
2017-07-18T05:53:02.304Z,41056
2017-07-18T05:54:02.313Z,50176
2017-07-18T05:54:57.273Z,50976
2017-07-18T05:55:57.636Z,50240
2017-07-18T05:56:46.647Z,49088
2017-07-18T05:57:35.393Z,47776
2017-07-18T05:58:29.385Z,48000
2017-07-18T05:59:24.656Z,49312
2017-07-18T06:00:18.674Z,50688
2017-07-18T06:01:07.103Z,52896
2017-07-18T06:02:01.881Z,48576
2017-07-18T06:03:02.899Z,43232
2017-07-18T06:04:03.165Z,46848
2017-07-18T06:04:51.253Z,38432
2017-07-18T06:05:40.209Z,37792
2017-07-18T06:06:34.179Z,34912
2017-07-18T06:07:33.893Z,32224
2017-07-18T06:08:29.495Z,31360
2017-07-18T06:09:18.201Z,32512
2017-07-18T06:10:12.230Z,31616
2017-07-18T06:11:06.369Z,28864
2017-07-18T06:12:01.400Z,27104
2017-07-18T06:12:56.408Z,26592
2017-07-18T06:13:44.921Z,26400
2017-07-18T06:14:44.734Z,25440
2017-07-18T06:15:32.443Z,24832
2017-07-18T06:16:20.958Z,24576
2017-07-18T06:17:14.997Z,24800
2017-07-18T06:18:08.712Z,25120
2017-07-18T06:19:08.859Z,25408
2017-07-18T06:20:03.184Z,26304
2017-07-18T06:20:56.780Z,26368
2017-07-18T06:21:46.198Z,27456
2017-07-18T06:22:34.912Z,28544
2017-07-18T06:23:23.865Z,28288
2017-07-18T06:24:18.082Z,29504
2017-07-18T06:25:12.096Z,31328
2017-07-18T06:26:06.077Z,41152
2017-07-18T06:27:00.496Z,40256
2017-07-18T06:27:54.122Z,35968
2017-07-18T06:28:48.478Z,34496
2017-07-18T06:29:37.260Z,35424
2017-07-18T06:30:32.755Z,33248
2017-07-18T06:31:26.311Z,34368
2017-07-18T06:32:26.369Z,33120
2017-07-18T06:33:26.470Z,35008
2017-07-18T06:34:26.544Z,36416
2017-07-18T06:35:20.507Z,36320
2017-07-18T06:36:08.578Z,37696
2017-07-18T06:37:02.770Z,36832
2017-07-18T06:37:57.785Z,38528
2017-07-18T06:38:52.366Z,40416
2017-07-18T06:39:40.919Z,36096
2017-07-18T06:40:30.268Z,33888
2017-07-18T06:41:24.956Z,33376
2017-07-18T06:42:19.973Z,34144
2017-07-18T06:43:14.054Z,33600
2017-07-18T06:44:03.079Z,39328
2017-07-18T06:44:57.524Z,38656
2017-07-18T06:45:52.302Z,36416
2017-07-18T06:46:40.270Z,47232
2017-07-18T06:47:29.519Z,38144
2017-07-18T06:48:18.772Z,39808
2017-07-18T06:49:13.867Z,40832
2017-07-18T06:50:02.631Z,35136
2017-07-18T06:50:57.776Z,34496
2017-07-18T06:51:52.874Z,39552
2017-07-18T06:52:46.923Z,49184
2017-07-18T06:53:42.157Z,35744
2017-07-18T06:54:30.083Z,46976
2017-07-18T06:55:19.181Z,64576
2017-07-18T06:56:14.361Z,71680
2017-07-18T06:57:08.410Z,38272
2017-07-18T06:57:57.017Z,31584
2017-07-18T06:58:46.784Z,26720
2017-07-18T06:59:40.002Z,27392
2017-07-18T07:00:40.309Z,29728
2017-07-18T07:01:34.191Z,47072
2017-07-18T07:02:28.257Z,39616
2017-07-18T07:03:22.265Z,40512
2017-07-18T07:04:23.563Z,40704
2017-07-18T07:05:12.787Z,61792
2017-07-18T07:06:06.775Z,40896
2017-07-18T07:07:01.559Z,62784
2017-07-18T07:07:56.870Z,63648
2017-07-18T07:08:46.298Z,61536
2017-07-18T07:09:34.193Z,53536
2017-07-18T07:10:28.141Z,57600
2017-07-18T07:11:22.143Z,62624
2017-07-18T07:12:16.910Z,53568
2017-07-18T07:13:10.973Z,50272
2017-07-18T07:14:00.446Z,69760
2017-07-18T07:14:54.267Z,74304
2017-07-18T07:15:48.170Z,77824
2017-07-18T07:16:42.119Z,79552
2017-07-18T07:17:42.428Z,81312
2017-07-18T07:18:31.437Z,77568
2017-07-18T07:19:25.831Z,61920
2017-07-18T07:20:19.893Z,50272
2017-07-18T07:21:14.948Z,54304
2017-07-18T07:22:04.061Z,34528
2017-07-18T07:22:59.055Z,28992
2017-07-18T07:23:53.181Z,28864
2017-07-18T07:24:47.699Z,30848
2017-07-18T07:25:42.202Z,35360
2017-07-18T07:26:35.960Z,37280
2017-07-18T07:27:25.324Z,39840
2017-07-18T07:28:14.343Z,42272
2017-07-18T07:29:02.592Z,39616
2017-07-18T07:29:56.593Z,41600
2017-07-18T07:30:45.634Z,47424
2017-07-18T07:31:34.147Z,43840
2017-07-18T07:32:34.239Z,71648
2017-07-18T07:33:34.647Z,71456
2017-07-18T07:34:28.867Z,70816
2017-07-18T07:35:22.919Z,62400
2017-07-18T07:36:16.944Z,61184
2017-07-18T07:37:11.069Z,78400
2017-07-18T07:38:05.008Z,64416
2017-07-18T07:38:59.044Z,74912
2017-07-18T07:39:48.162Z,80608
2017-07-18T07:40:43.440Z,76704
2017-07-18T07:41:43.153Z,61568
2017-07-18T07:42:32.426Z,58624
2017-07-18T07:43:27.608Z,46656
2017-07-18T07:44:21.615Z,67200
2017-07-18T07:45:21.580Z,47168
2017-07-18T07:46:15.617Z,40064
2017-07-18T07:47:15.619Z,42080
2017-07-18T07:48:09.607Z,38336
2017-07-18T07:49:04.846Z,43136
2017-07-18T07:49:58.802Z,73312
2017-07-18T07:50:52.611Z,71104
2017-07-18T07:51:41.999Z,61600
2017-07-18T07:52:42.070Z,73472
2017-07-18T07:53:36.092Z,44864
2017-07-18T07:54:29.921Z,87488
2017-07-18T07:55:31.035Z,86560
2017-07-18T07:56:32.395Z,89376
2017-07-18T07:57:32.233Z,72032
2017-07-18T07:58:26.428Z,79520
2017-07-18T07:59:20.519Z,97280
2017-07-18T08:00:14.645Z,92544
2017-07-18T08:01:09.630Z,91328
2017-07-18T08:02:03.749Z,84448
2017-07-18T08:03:03.662Z,86432
2017-07-18T08:03:51.748Z,84160
2017-07-18T08:04:40.748Z,81600
2017-07-18T08:05:29.993Z,83200
2017-07-18T08:06:18.962Z,83264
2017-07-18T08:07:20.101Z,85504
2017-07-18T08:08:15.119Z,87104
2017-07-18T08:09:04.125Z,92000
2017-07-18T08:09:53.364Z,94752
2017-07-18T08:10:47.457Z,95232
2017-07-18T08:11:41.550Z,97696
2017-07-18T08:12:36.506Z,101760
2017-07-18T08:13:36.665Z,100800
2017-07-18T08:14:37.501Z,89152
2017-07-18T08:15:37.319Z,99104
2017-07-18T08:16:37.811Z,86240
2017-07-18T08:17:32.921Z,101888
2017-07-18T08:18:27.058Z,72608
2017-07-18T08:19:22.084Z,56288
2017-07-18T08:20:16.173Z,49696
2017-07-18T08:21:10.190Z,72480
2017-07-18T08:22:04.398Z,46016
2017-07-18T08:22:58.376Z,43072
2017-07-18T08:23:47.525Z,44000
2017-07-18T08:24:36.471Z,46304
2017-07-18T08:25:36.580Z,48352
2017-07-18T08:26:31.548Z,46208
2017-07-18T08:27:25.654Z,47936
2017-07-18T08:28:32.163Z,74432
2017-07-18T08:29:26.719Z,50304
2017-07-18T08:30:20.842Z,65664
2017-07-18T08:31:15.888Z,51584
2017-07-18T08:32:09.982Z,49184
2017-07-18T08:33:05.082Z,56288
2017-07-18T08:34:05.031Z,57344
2017-07-18T08:35:00.152Z,58976
2017-07-18T08:35:54.194Z,79296
2017-07-18T08:36:48.183Z,54336
2017-07-18T08:37:42.283Z,68960
2017-07-18T08:38:42.396Z,61632
2017-07-18T08:39:36.402Z,54624
2017-07-18T08:40:31.475Z,55904
2017-07-18T08:41:25.553Z,62528
2017-07-18T08:42:13.637Z,59456
2017-07-18T08:43:08.700Z,69280
2017-07-18T08:43:57.715Z,56320
2017-07-18T08:44:57.752Z,74752
2017-07-18T08:45:47.020Z,73408
2017-07-18T08:46:35.954Z,72800
2017-07-18T08:47:29.936Z,85728
2017-07-18T08:48:23.971Z,65056
2017-07-18T08:49:18.212Z,92480
2017-07-18T08:50:07.209Z,76192
2017-07-18T08:50:56.299Z,83616
2017-07-18T08:51:51.240Z,89664
2017-07-18T08:52:46.340Z,86272
2017-07-18T08:53:40.475Z,88736
2017-07-18T08:54:34.503Z,95392
2017-07-18T08:55:29.493Z,95584
2017-07-18T08:56:18.664Z,93152
2017-07-18T08:57:18.768Z,102208
2017-07-18T08:58:13.807Z,92448
2017-07-18T08:59:02.133Z,103104
2017-07-18T08:59:55.920Z,95232
2017-07-18T09:00:50.069Z,93952
2017-07-18T09:01:44.045Z,85952
2017-07-18T09:02:33.216Z,81824
2017-07-18T09:03:21.302Z,78304
2017-07-18T09:04:15.486Z,76896
2017-07-18T09:05:15.352Z,79488
2017-07-18T09:06:09.531Z,83104
2017-07-18T09:07:03.683Z,87104
2017-07-18T09:08:03.671Z,90976
2017-07-18T09:08:57.731Z,94144
2017-07-18T09:09:52.824Z,95936
2017-07-18T09:10:46.921Z,97920
2017-07-18T09:11:42.081Z,100032
2017-07-18T09:12:37.051Z,103008
2017-07-18T09:13:31.176Z,107168
2017-07-18T09:14:31.211Z,105312
2017-07-18T09:15:25.418Z,104064
2017-07-18T09:16:19.492Z,100576
2017-07-18T09:17:13.453Z,99136
2017-07-18T09:18:08.664Z,95008
2017-07-18T09:19:08.596Z,93120
2017-07-18T09:20:08.724Z,90720
2017-07-18T09:21:08.801Z,86976
2017-07-18T09:22:03.773Z,85024
2017-07-18T09:22:53.144Z,84800
2017-07-18T09:23:47.162Z,86400
2017-07-18T09:24:47.166Z,87168
2017-07-18T09:25:41.212Z,86368
2017-07-18T09:26:36.374Z,86144
2017-07-18T09:27:30.296Z,85024
2017-07-18T09:28:25.525Z,81312
2017-07-18T09:29:14.545Z,78080
2017-07-18T09:30:09.658Z,72864
2017-07-18T09:31:09.640Z,68768
2017-07-18T09:32:09.771Z,69600
2017-07-18T09:33:09.904Z,68352
2017-07-18T09:34:03.932Z,70368
2017-07-18T09:34:58.932Z,75840
2017-07-18T09:35:54.096Z,81088
2017-07-18T09:36:54.127Z,85568
2017-07-18T09:37:43.242Z,88896
2017-07-18T09:38:37.290Z,90016
2017-07-18T09:39:31.249Z,86656
2017-07-18T09:40:19.405Z,82144
2017-07-18T09:41:13.478Z,74016
2017-07-18T09:42:01.524Z,72352
2017-07-18T09:42:55.556Z,68736
2017-07-18T09:43:49.720Z,70080
2017-07-18T09:44:44.649Z,75104
2017-07-18T09:45:38.741Z,82720
2017-07-18T09:46:38.875Z,88448
2017-07-18T09:47:33.957Z,90816
2017-07-18T09:48:28.015Z,95136
2017-07-18T09:49:22.170Z,87648
2017-07-18T09:50:16.092Z,91328
2017-07-18T09:51:04.278Z,85376
2017-07-18T09:51:58.271Z,91680
2017-07-18T09:52:52.394Z,93504
2017-07-18T09:53:46.500Z,90496
2017-07-18T09:54:40.552Z,89888
2017-07-18T09:55:40.581Z,85984
2017-07-18T09:56:34.754Z,86944
2017-07-18T09:57:28.691Z,79936
2017-07-18T09:58:23.799Z,84864
2017-07-18T09:59:12.903Z,78272
2017-07-18T10:00:00.961Z,82336
2017-07-18T10:01:01.095Z,90656
2017-07-18T10:01:56.108Z,89824
2017-07-18T10:02:50.187Z,84640
2017-07-18T10:03:44.272Z,86720
2017-07-18T10:04:38.538Z,101824
2017-07-18T10:05:32.317Z,110112
2017-07-18T10:06:32.474Z,112480
2017-07-18T10:07:26.604Z,112896
2017-07-18T10:08:26.551Z,104608
2017-07-18T10:09:15.583Z,99712
2017-07-18T10:10:04.875Z,93344
2017-07-18T10:10:58.944Z,91456
2017-07-18T10:11:52.916Z,94720
2017-07-18T10:12:46.922Z,95488
2017-07-18T10:13:40.978Z,93248
2017-07-18T10:14:35.013Z,90112
2017-07-18T10:15:29.120Z,84576
2017-07-18T10:16:17.185Z,78368
2017-07-18T10:17:11.245Z,71424
2017-07-18T10:18:00.361Z,70496
2017-07-18T10:18:49.434Z,70944
2017-07-18T10:19:44.457Z,75808
2017-07-18T10:20:38.600Z,79360
2017-07-18T10:21:38.599Z,82464
2017-07-18T10:22:33.704Z,82144
2017-07-18T10:23:28.765Z,82912
2017-07-18T10:24:22.809Z,83072
2017-07-18T10:25:16.929Z,82848
2017-07-18T10:26:11.037Z,83744
2017-07-18T10:27:00.067Z,85952
2017-07-18T10:27:54.175Z,87072
2017-07-18T10:28:48.463Z,86080
2017-07-18T10:29:42.289Z,83264
2017-07-18T10:30:37.368Z,83456
2017-07-18T10:31:37.449Z,80768
2017-07-18T10:32:32.414Z,75264
2017-07-18T10:33:27.651Z,72160
2017-07-18T10:34:27.566Z,73408
2017-07-18T10:35:21.719Z,82528
2017-07-18T10:36:21.848Z,84608
2017-07-18T10:37:15.856Z,88416
2017-07-18T10:38:10.894Z,90400
2017-07-18T10:38:58.927Z,91136
2017-07-18T10:39:53.996Z,90912
2017-07-18T10:40:48.077Z,92576
2017-07-18T10:41:42.196Z,93088
2017-07-18T10:42:36.382Z,89984
2017-07-18T10:43:30.292Z,91360
2017-07-18T10:44:18.400Z,92992
2017-07-18T10:45:12.549Z,92640
2017-07-18T10:46:07.642Z,95296
2017-07-18T10:46:56.775Z,96576
2017-07-18T10:47:50.888Z,97280
2017-07-18T10:48:45.876Z,97440
2017-07-18T10:49:39.967Z,96160
2017-07-18T10:50:33.971Z,95936
2017-07-18T10:51:23.112Z,95808
2017-07-18T10:52:17.168Z,93504
2017-07-18T10:53:06.245Z,92672
2017-07-18T10:53:54.308Z,92320
2017-07-18T10:54:42.376Z,92416
2017-07-18T10:55:31.524Z,92480
2017-07-18T10:56:26.643Z,94400
2017-07-18T10:57:21.682Z,94656
2017-07-18T10:58:16.853Z,85216
2017-07-18T10:59:11.911Z,71936
2017-07-18T11:00:00.975Z,80768
2017-07-18T11:00:56.065Z,86400
2017-07-18T11:01:45.166Z,81344
2017-07-18T11:02:39.171Z,87744
2017-07-18T11:03:34.238Z,78560
2017-07-18T11:04:28.468Z,77632
2017-07-18T11:05:23.468Z,78976
2017-07-18T11:06:11.630Z,72160
2017-07-18T11:07:00.617Z,78656
2017-07-18T11:07:55.642Z,67104
2017-07-18T11:08:50.910Z,97824
2017-07-18T11:09:44.842Z,93344
2017-07-18T11:10:33.956Z,83968
2017-07-18T11:11:23.071Z,83488
2017-07-18T11:12:17.156Z,63872
2017-07-18T11:13:17.171Z,89216
2017-07-18T11:14:06.256Z,89504
2017-07-18T11:15:00.318Z,91680
2017-07-18T11:15:54.389Z,93280
2017-07-18T11:16:48.566Z,96544
2017-07-18T11:17:43.596Z,97536
2017-07-18T11:18:38.702Z,95776
2017-07-18T11:19:27.859Z,96416
2017-07-18T11:20:15.876Z,97248
2017-07-18T11:21:04.914Z,99968
2017-07-18T11:22:05.163Z,101600
2017-07-18T11:22:59.163Z,101152
2017-07-18T11:23:54.143Z,96672
2017-07-18T11:24:49.582Z,95072
2017-07-18T11:25:43.418Z,93856
2017-07-18T11:26:38.453Z,93120
2017-07-18T11:27:27.586Z,94816
2017-07-18T11:28:21.670Z,94848
2017-07-18T11:29:15.737Z,94272
2017-07-18T11:30:10.969Z,93344
2017-07-18T11:31:05.891Z,0
2017-07-18T11:31:59.949Z,88000
2017-07-18T11:32:55.030Z,90656
2017-07-18T11:33:50.201Z,93216
2017-07-18T11:34:50.261Z,98720
2017-07-18T11:35:50.366Z,94528
2017-07-18T11:36:44.318Z,93920
2017-07-18T11:37:33.405Z,92992
2017-07-18T11:38:28.465Z,92800
2017-07-18T11:39:17.640Z,93088
2017-07-18T11:40:12.691Z,93696
2017-07-18T11:41:06.824Z,94528
2017-07-18T11:41:55.892Z,93856
2017-07-18T11:42:44.923Z,92352
2017-07-18T11:43:45.191Z,91808
2017-07-18T11:44:39.163Z,90272
2017-07-18T11:45:33.129Z,89216
2017-07-18T11:46:22.332Z,88544
2017-07-18T11:47:11.340Z,10792
2017-07-18T11:48:12.589Z,88256
2017-07-18T11:49:07.655Z,89728
2017-07-18T11:50:01.870Z,92544
2017-07-18T11:50:50.818Z,92064
2017-07-18T11:51:45.872Z,92416
2017-07-18T11:52:33.914Z,90880
2017-07-18T11:53:28.015Z,87680
2017-07-18T11:54:23.087Z,85984
2017-07-18T11:55:23.087Z,84448
2017-07-18T11:56:18.133Z,86080
2017-07-18T11:57:12.331Z,86976
2017-07-18T11:58:06.379Z,87136
2017-07-18T11:59:01.433Z,84960
2017-07-18T11:59:56.469Z,82752
2017-07-18T12:00:45.662Z,78144
2017-07-18T12:01:34.740Z,74784
2017-07-18T12:02:29.036Z,72576
2017-07-18T12:03:22.858Z,72096
2017-07-18T12:04:17.995Z,72512
2017-07-18T12:05:06.067Z,74432
2017-07-18T12:06:06.192Z,77088
2017-07-18T12:07:06.184Z,77792
2017-07-18T12:08:06.418Z,78912
2017-07-18T12:09:00.308Z,79072
2017-07-18T12:09:55.424Z,77600
2017-07-18T12:10:44.555Z,77952
2017-07-18T12:11:44.698Z,80000